Alexander, North Carolina
Current Conditions -  °F | °C
As of 7:54 PM on Friday 24 Oct 2014 (Local Time) from KAVL Reporting Station
Clear Clear  
Wind Chill: 13°   Ceiling: Unl
Heat Index: 13°   Visibility: 10mi
Dew Point:   Wind: 8mph
Humidity: 45%   Direction: 350°N
Pressure: 30.05"   Gusts: NA
Location:  35.69°N, 82.66°W
Report Text: KAVL 242354Z 35007KT 10SM CLR 13/02 A3005 RMK AO2 SLP172 T01330017 10183 20128 53011
Loading
Personal Weather Stations






























Interactive Weather Map
Tropical Storm Tracking
New forecast layout! Learn more

10-Day Weather Forecast

Advertisements
Track Severe Weather on mobile